sensor_id;sensor_type;location;lat;lon;timestamp;temperature;humidity
74513;DHT22;62992;52.052;8.550;2022-10-16T00:01:56;13.40;99.90
74513;DHT22;62992;52.052;8.550;2022-10-16T00:04:22;13.40;99.90
74513;DHT22;62992;52.052;8.550;2022-10-16T00:06:48;13.30;99.90
74513;DHT22;62992;52.052;8.550;2022-10-16T00:09:13;13.30;99.90
74513;DHT22;62992;52.052;8.550;2022-10-16T00:11:40;13.30;99.90
74513;DHT22;62992;52.052;8.550;2022-10-16T00:14:10;13.30;99.90
74513;DHT22;62992;52.052;8.550;2022-10-16T00:16:36;13.30;99.90
74513;DHT22;62992;52.052;8.550;2022-10-16T00:19:02;13.40;99.90
74513;DHT22;62992;52.052;8.550;2022-10-16T00:21:29;13.30;99.90
74513;DHT22;62992;52.052;8.550;2022-10-16T00:24:06;13.30;99.90
74513;DHT22;62992;52.052;8.550;2022-10-16T00:26:34;13.30;99.90
74513;DHT22;62992;52.052;8.550;2022-10-16T00:29:01;13.30;99.90
74513;DHT22;62992;52.052;8.550;2022-10-16T00:31:27;13.30;99.90
74513;DHT22;62992;52.052;8.550;2022-10-16T00:33:53;13.30;99.90
74513;DHT22;62992;52.052;8.550;2022-10-16T00:36:20;13.30;99.90
74513;DHT22;62992;52.052;8.550;2022-10-16T00:38:46;13.30;99.90
74513;DHT22;62992;52.052;8.550;2022-10-16T00:41:16;13.20;99.90
74513;DHT22;62992;52.052;8.550;2022-10-16T00:43:51;13.20;99.90
74513;DHT22;62992;52.052;8.550;2022-10-16T00:48:52;13.20;99.90
74513;DHT22;62992;52.052;8.550;2022-10-16T00:51:22;13.20;99.90
74513;DHT22;62992;52.052;8.550;2022-10-16T00:53:49;13.10;99.90
74513;DHT22;62992;52.052;8.550;2022-10-16T00:56:14;13.10;99.90
74513;DHT22;62992;52.052;8.550;2022-10-16T00:58:40;13.00;99.90
74513;DHT22;62992;52.052;8.550;2022-10-16T01:01:06;12.90;99.90
74513;DHT22;62992;52.052;8.550;2022-10-16T01:03:35;12.80;99.90
74513;DHT22;62992;52.052;8.550;2022-10-16T01:06:15;12.90;99.90
74513;DHT22;62992;52.052;8.550;2022-10-16T01:11:35;12.90;99.90
74513;DHT22;62992;52.052;8.550;2022-10-16T01:14:14;12.90;99.90
74513;DHT22;62992;52.052;8.550;2022-10-16T01:16:52;12.90;99.90
74513;DHT22;62992;52.052;8.550;2022-10-16T01:21:54;12.90;99.90
74513;DHT22;62992;52.052;8.550;2022-10-16T01:24:51;12.90;99.90
74513;DHT22;62992;52.052;8.550;2022-10-16T01:27:21;12.90;99.90
74513;DHT22;62992;52.052;8.550;2022-10-16T01:30:10;12.90;99.90
74513;DHT22;62992;52.052;8.550;2022-10-16T01:32:49;12.90;99.90
74513;DHT22;62992;52.052;8.550;2022-10-16T01:37:47;12.90;99.90
74513;DHT22;62992;52.052;8.550;2022-10-16T01:40:16;12.90;99.90
74513;DHT22;62992;52.052;8.550;2022-10-16T01:42:48;12.90;99.90
74513;DHT22;62992;52.052;8.550;2022-10-16T01:45:17;12.90;99.90
74513;DHT22;62992;52.052;8.550;2022-10-16T01:47:44;12.90;99.90
74513;DHT22;62992;52.052;8.550;2022-10-16T01:50:12;12.90;99.90
74513;DHT22;62992;52.052;8.550;2022-10-16T01:52:41;12.90;99.90
74513;DHT22;62992;52.052;8.550;2022-10-16T01:55:09;13.00;99.90
74513;DHT22;62992;52.052;8.550;2022-10-16T01:57:38;12.90;99.90
74513;DHT22;62992;52.052;8.550;2022-10-16T02:00:10;12.90;99.90
74513;DHT22;62992;52.052;8.550;2022-10-16T02:02:40;12.90;99.90
74513;DHT22;62992;52.052;8.550;2022-10-16T02:05:28;12.80;99.90
74513;DHT22;62992;52.052;8.550;2022-10-16T02:07:55;12.90;99.90
74513;DHT22;62992;52.052;8.550;2022-10-16T02:10:22;12.80;99.90
74513;DHT22;62992;52.052;8.550;2022-10-16T02:12:55;12.80;99.90
74513;DHT22;62992;52.052;8.550;2022-10-16T02:15:22;12.80;99.90
74513;DHT22;62992;52.052;8.550;2022-10-16T02:17:48;12.90;99.90
74513;DHT22;62992;52.052;8.550;2022-10-16T02:20:13;12.90;99.90
74513;DHT22;62992;52.052;8.550;2022-10-16T02:22:45;12.90;99.90
74513;DHT22;62992;52.052;8.550;2022-10-16T02:25:25;12.80;99.90
74513;DHT22;62992;52.052;8.550;2022-10-16T02:28:08;12.80;99.90
74513;DHT22;62992;52.052;8.550;2022-10-16T02:33:37;12.80;99.90
74513;DHT22;62992;52.052;8.550;2022-10-16T02:36:04;12.80;99.90
74513;DHT22;62992;52.052;8.550;2022-10-16T02:38:30;12.70;99.90
74513;DHT22;62992;52.052;8.550;2022-10-16T02:40:56;12.60;99.90
74513;DHT22;62992;52.052;8.550;2022-10-16T02:43:22;12.70;99.90
74513;DHT22;62992;52.052;8.550;2022-10-16T02:45:47;12.70;99.90
74513;DHT22;62992;52.052;8.550;2022-10-16T02:48:13;12.70;99.90
74513;DHT22;62992;52.052;8.550;2022-10-16T02:50:38;12.80;99.90
74513;DHT22;62992;52.052;8.550;2022-10-16T02:53:04;12.80;99.90
74513;DHT22;62992;52.052;8.550;2022-10-16T02:55:29;12.80;99.90
74513;DHT22;62992;52.052;8.550;2022-10-16T02:57:55;12.80;99.90
74513;DHT22;62992;52.052;8.550;2022-10-16T03:00:21;12.70;99.90
74513;DHT22;62992;52.052;8.550;2022-10-16T03:02:46;12.70;99.90
74513;DHT22;62992;52.052;8.550;2022-10-16T03:05:13;12.70;99.90
74513;DHT22;62992;52.052;8.550;2022-10-16T03:07:39;12.70;99.90
74513;DHT22;62992;52.052;8.550;2022-10-16T03:10:05;12.80;99.90
74513;DHT22;62992;52.052;8.550;2022-10-16T03:12:31;12.80;99.90
74513;DHT22;62992;52.052;8.550;2022-10-16T03:14:57;12.80;99.90
74513;DHT22;62992;52.052;8.550;2022-10-16T03:17:23;12.90;99.90
74513;DHT22;62992;52.052;8.550;2022-10-16T03:19:49;12.90;99.90
74513;DHT22;62992;52.052;8.550;2022-10-16T03:22:15;12.90;99.90
74513;DHT22;62992;52.052;8.550;2022-10-16T03:24:40;12.90;99.90
74513;DHT22;62992;52.052;8.550;2022-10-16T03:27:07;12.90;99.90
74513;DHT22;62992;52.052;8.550;2022-10-16T03:29:32;12.90;99.90
74513;DHT22;62992;52.052;8.550;2022-10-16T03:31:59;12.90;99.90
74513;DHT22;62992;52.052;8.550;2022-10-16T03:34:24;12.90;99.90
74513;DHT22;62992;52.052;8.550;2022-10-16T03:36:51;13.00;99.90
74513;DHT22;62992;52.052;8.550;2022-10-16T03:39:17;12.90;99.90
74513;DHT22;62992;52.052;8.550;2022-10-16T03:41:42;12.90;99.90
74513;DHT22;62992;52.052;8.550;2022-10-16T03:44:08;12.90;99.90
74513;DHT22;62992;52.052;8.550;2022-10-16T03:46:33;12.90;99.90
74513;DHT22;62992;52.052;8.550;2022-10-16T03:48:59;13.00;99.90
74513;DHT22;62992;52.052;8.550;2022-10-16T03:51:24;12.90;99.90
74513;DHT22;62992;52.052;8.550;2022-10-16T03:53:50;12.90;99.90
74513;DHT22;62992;52.052;8.550;2022-10-16T03:56:16;12.90;99.90
74513;DHT22;62992;52.052;8.550;2022-10-16T03:58:41;13.00;99.90
74513;DHT22;62992;52.052;8.550;2022-10-16T04:01:07;12.90;99.90
74513;DHT22;62992;52.052;8.550;2022-10-16T04:03:33;13.00;99.90
74513;DHT22;62992;52.052;8.550;2022-10-16T04:05:58;13.00;99.90
74513;DHT22;62992;52.052;8.550;2022-10-16T04:08:24;13.00;99.90
74513;DHT22;62992;52.052;8.550;2022-10-16T04:10:49;13.00;99.90
74513;DHT22;62992;52.052;8.550;2022-10-16T04:13:15;13.00;99.90
74513;DHT22;62992;52.052;8.550;2022-10-16T04:15:41;13.00;99.90
74513;DHT22;62992;52.052;8.550;2022-10-16T04:18:07;13.00;99.90
74513;DHT22;62992;52.052;8.550;2022-10-16T04:20:33;13.00;99.90
74513;DHT22;62992;52.052;8.550;2022-10-16T04:22:59;13.10;99.90
74513;DHT22;62992;52.052;8.550;2022-10-16T04:25:25;13.20;99.90
74513;DHT22;62992;52.052;8.550;2022-10-16T04:27:52;13.10;99.90
74513;DHT22;62992;52.052;8.550;2022-10-16T04:30:18;13.10;99.90
74513;DHT22;62992;52.052;8.550;2022-10-16T04:32:51;13.20;99.90
74513;DHT22;62992;52.052;8.550;2022-10-16T04:35:18;13.20;99.90
74513;DHT22;62992;52.052;8.550;2022-10-16T04:37:44;13.20;99.90
74513;DHT22;62992;52.052;8.550;2022-10-16T04:40:10;13.20;99.90
74513;DHT22;62992;52.052;8.550;2022-10-16T04:42:36;13.20;99.90
74513;DHT22;62992;52.052;8.550;2022-10-16T04:45:02;13.30;99.90
74513;DHT22;62992;52.052;8.550;2022-10-16T04:47:28;13.30;99.90
74513;DHT22;62992;52.052;8.550;2022-10-16T04:49:54;13.30;99.90
74513;DHT22;62992;52.052;8.550;2022-10-16T04:52:19;13.30;99.90
74513;DHT22;62992;52.052;8.550;2022-10-16T04:54:46;13.30;99.90
74513;DHT22;62992;52.052;8.550;2022-10-16T04:57:12;13.30;99.90
74513;DHT22;62992;52.052;8.550;2022-10-16T04:59:38;13.30;99.90
74513;DHT22;62992;52.052;8.550;2022-10-16T05:02:03;13.30;99.90
74513;DHT22;62992;52.052;8.550;2022-10-16T05:04:29;13.30;99.90
74513;DHT22;62992;52.052;8.550;2022-10-16T05:06:54;13.30;99.90
74513;DHT22;62992;52.052;8.550;2022-10-16T05:09:20;13.30;99.90
74513;DHT22;62992;52.052;8.550;2022-10-16T05:11:46;13.30;99.90
74513;DHT22;62992;52.052;8.550;2022-10-16T05:14:11;13.30;99.90
74513;DHT22;62992;52.052;8.550;2022-10-16T05:16:37;13.30;99.90
74513;DHT22;62992;52.052;8.550;2022-10-16T05:19:02;13.30;99.90
74513;DHT22;62992;52.052;8.550;2022-10-16T05:21:28;13.20;99.90
74513;DHT22;62992;52.052;8.550;2022-10-16T05:23:54;13.20;99.90
74513;DHT22;62992;52.052;8.550;2022-10-16T05:26:20;13.20;99.90
74513;DHT22;62992;52.052;8.550;2022-10-16T05:28:46;13.10;99.90
74513;DHT22;62992;52.052;8.550;2022-10-16T05:31:12;13.10;99.90
74513;DHT22;62992;52.052;8.550;2022-10-16T05:33:37;13.10;99.90
74513;DHT22;62992;52.052;8.550;2022-10-16T05:36:05;13.10;99.90
74513;DHT22;62992;52.052;8.550;2022-10-16T05:38:33;13.00;99.90
74513;DHT22;62992;52.052;8.550;2022-10-16T05:40:59;13.00;99.90
74513;DHT22;62992;52.052;8.550;2022-10-16T05:43:24;13.00;99.90
74513;DHT22;62992;52.052;8.550;2022-10-16T05:45:57;13.00;99.90
74513;DHT22;62992;52.052;8.550;2022-10-16T05:48:23;13.00;99.90
74513;DHT22;62992;52.052;8.550;2022-10-16T05:50:59;13.00;99.90
74513;DHT22;62992;52.052;8.550;2022-10-16T05:53:26;13.00;99.90
74513;DHT22;62992;52.052;8.550;2022-10-16T05:55:53;13.00;99.90
74513;DHT22;62992;52.052;8.550;2022-10-16T05:58:19;13.00;99.90
74513;DHT22;62992;52.052;8.550;2022-10-16T06:00:44;13.00;99.90
74513;DHT22;62992;52.052;8.550;2022-10-16T06:03:10;13.00;99.90
74513;DHT22;62992;52.052;8.550;2022-10-16T06:05:35;13.00;99.90
74513;DHT22;62992;52.052;8.550;2022-10-16T06:08:01;13.00;99.90
74513;DHT22;62992;52.052;8.550;2022-10-16T06:10:27;13.00;99.90
74513;DHT22;62992;52.052;8.550;2022-10-16T06:12:54;13.00;99.90
74513;DHT22;62992;52.052;8.550;2022-10-16T06:15:19;13.00;99.90
74513;DHT22;62992;52.052;8.550;2022-10-16T06:17:45;13.10;99.90
74513;DHT22;62992;52.052;8.550;2022-10-16T06:20:11;13.10;99.90
74513;DHT22;62992;52.052;8.550;2022-10-16T06:22:36;13.10;99.90
74513;DHT22;62992;52.052;8.550;2022-10-16T06:25:02;13.20;99.90
74513;DHT22;62992;52.052;8.550;2022-10-16T06:27:28;13.30;99.90
74513;DHT22;62992;52.052;8.550;2022-10-16T06:29:53;13.50;99.90
74513;DHT22;62992;52.052;8.550;2022-10-16T06:32:19;13.40;99.90
74513;DHT22;62992;52.052;8.550;2022-10-16T06:34:46;13.50;99.90
74513;DHT22;62992;52.052;8.550;2022-10-16T06:37:12;13.60;99.90
74513;DHT22;62992;52.052;8.550;2022-10-16T06:39:37;13.70;99.90
74513;DHT22;62992;52.052;8.550;2022-10-16T06:42:03;13.80;99.90
74513;DHT22;62992;52.052;8.550;2022-10-16T06:44:28;13.80;99.90
74513;DHT22;62992;52.052;8.550;2022-10-16T06:46:54;13.80;99.90
74513;DHT22;62992;52.052;8.550;2022-10-16T06:49:19;13.80;99.90
74513;DHT22;62992;52.052;8.550;2022-10-16T06:51:48;13.80;99.90
74513;DHT22;62992;52.052;8.550;2022-10-16T06:54:15;13.80;99.90
74513;DHT22;62992;52.052;8.550;2022-10-16T06:56:40;13.80;99.90
74513;DHT22;62992;52.052;8.550;2022-10-16T06:59:06;13.70;99.90
74513;DHT22;62992;52.052;8.550;2022-10-16T07:01:32;13.70;99.90
74513;DHT22;62992;52.052;8.550;2022-10-16T07:03:58;13.80;99.90
74513;DHT22;62992;52.052;8.550;2022-10-16T07:06:25;13.80;99.90
74513;DHT22;62992;52.052;8.550;2022-10-16T07:08:51;13.90;99.90
74513;DHT22;62992;52.052;8.550;2022-10-16T07:11:19;14.10;99.90
74513;DHT22;62992;52.052;8.550;2022-10-16T07:13:46;14.20;99.90
74513;DHT22;62992;52.052;8.550;2022-10-16T07:16:14;14.40;99.90
74513;DHT22;62992;52.052;8.550;2022-10-16T07:18:40;14.30;99.90
74513;DHT22;62992;52.052;8.550;2022-10-16T07:21:11;14.80;99.90
74513;DHT22;62992;52.052;8.550;2022-10-16T07:23:37;16.10;99.90
74513;DHT22;62992;52.052;8.550;2022-10-16T07:26:04;17.10;99.90
74513;DHT22;62992;52.052;8.550;2022-10-16T07:28:30;17.00;99.90
74513;DHT22;62992;52.052;8.550;2022-10-16T07:31:01;16.60;99.90
74513;DHT22;62992;52.052;8.550;2022-10-16T07:33:28;16.30;99.90
74513;DHT22;62992;52.052;8.550;2022-10-16T07:35:54;15.80;99.90
74513;DHT22;62992;52.052;8.550;2022-10-16T07:38:21;16.40;99.90
74513;DHT22;62992;52.052;8.550;2022-10-16T07:40:47;17.10;99.90
74513;DHT22;62992;52.052;8.550;2022-10-16T07:43:13;20.50;99.90
74513;DHT22;62992;52.052;8.550;2022-10-16T07:45:49;21.00;99.90
74513;DHT22;62992;52.052;8.550;2022-10-16T07:48:16;21.40;99.90
74513;DHT22;62992;52.052;8.550;2022-10-16T07:50:42;19.40;99.90
74513;DHT22;62992;52.052;8.550;2022-10-16T07:53:08;20.30;99.90
74513;DHT22;62992;52.052;8.550;2022-10-16T07:55:34;18.80;99.90
74513;DHT22;62992;52.052;8.550;2022-10-16T07:57:59;18.00;99.90
74513;DHT22;62992;52.052;8.550;2022-10-16T08:00:25;17.00;99.90
74513;DHT22;62992;52.052;8.550;2022-10-16T08:02:50;18.90;99.90
74513;DHT22;62992;52.052;8.550;2022-10-16T08:05:16;17.90;99.90
74513;DHT22;62992;52.052;8.550;2022-10-16T08:07:42;18.50;99.90
74513;DHT22;62992;52.052;8.550;2022-10-16T08:10:16;19.20;99.90
74513;DHT22;62992;52.052;8.550;2022-10-16T08:12:42;19.80;99.90
74513;DHT22;62992;52.052;8.550;2022-10-16T08:15:08;20.90;99.90
74513;DHT22;62992;52.052;8.550;2022-10-16T08:17:34;21.90;99.90
74513;DHT22;62992;52.052;8.550;2022-10-16T08:19:59;21.90;99.90
74513;DHT22;62992;52.052;8.550;2022-10-16T08:22:25;21.60;99.90
74513;DHT22;62992;52.052;8.550;2022-10-16T08:24:51;22.30;99.90
74513;DHT22;62992;52.052;8.550;2022-10-16T08:27:16;21.10;99.90
74513;DHT22;62992;52.052;8.550;2022-10-16T08:29:42;21.20;99.90
74513;DHT22;62992;52.052;8.550;2022-10-16T08:32:07;20.90;99.90
74513;DHT22;62992;52.052;8.550;2022-10-16T08:34:33;20.90;99.90
74513;DHT22;62992;52.052;8.550;2022-10-16T08:36:58;20.10;99.90
74513;DHT22;62992;52.052;8.550;2022-10-16T08:39:24;20.50;99.90
74513;DHT22;62992;52.052;8.550;2022-10-16T08:42:14;20.70;99.90
74513;DHT22;62992;52.052;8.550;2022-10-16T08:47:43;20.80;99.90
74513;DHT22;62992;52.052;8.550;2022-10-16T08:50:21;20.80;99.90
74513;DHT22;62992;52.052;8.550;2022-10-16T08:52:47;20.50;99.90
74513;DHT22;62992;52.052;8.550;2022-10-16T08:57:53;20.00;99.90
74513;DHT22;62992;52.052;8.550;2022-10-16T09:00:21;19.70;99.90
74513;DHT22;62992;52.052;8.550;2022-10-16T09:03:10;20.00;99.90
74513;DHT22;62992;52.052;8.550;2022-10-16T09:05:54;19.60;99.90
74513;DHT22;62992;52.052;8.550;2022-10-16T09:14:16;19.70;99.90
74513;DHT22;62992;52.052;8.550;2022-10-16T09:16:48;19.80;99.90
74513;DHT22;62992;52.052;8.550;2022-10-16T09:19:20;19.90;99.90
74513;DHT22;62992;52.052;8.550;2022-10-16T09:21:47;20.00;99.90
74513;DHT22;62992;52.052;8.550;2022-10-16T09:24:25;20.70;99.90
74513;DHT22;62992;52.052;8.550;2022-10-16T09:26:51;20.10;99.90
74513;DHT22;62992;52.052;8.550;2022-10-16T09:29:19;19.60;99.90
74513;DHT22;62992;52.052;8.550;2022-10-16T09:31:50;18.90;99.90
74513;DHT22;62992;52.052;8.550;2022-10-16T09:36:48;18.90;99.90
74513;DHT22;62992;52.052;8.550;2022-10-16T09:39:14;19.00;99.90
74513;DHT22;62992;52.052;8.550;2022-10-16T09:41:43;18.50;99.90
74513;DHT22;62992;52.052;8.550;2022-10-16T09:44:23;19.10;99.90
74513;DHT22;62992;52.052;8.550;2022-10-16T09:47:00;19.50;99.90
74513;DHT22;62992;52.052;8.550;2022-10-16T09:49:26;20.00;99.90
74513;DHT22;62992;52.052;8.550;2022-10-16T09:52:12;20.40;99.90
74513;DHT22;62992;52.052;8.550;2022-10-16T09:54:52;20.20;99.90
74513;DHT22;62992;52.052;8.550;2022-10-16T09:57:18;19.50;99.90
74513;DHT22;62992;52.052;8.550;2022-10-16T09:59:52;20.00;99.90
74513;DHT22;62992;52.052;8.550;2022-10-16T10:02:38;20.70;99.90
74513;DHT22;62992;52.052;8.550;2022-10-16T10:05:21;20.40;99.90
74513;DHT22;62992;52.052;8.550;2022-10-16T10:07:54;20.60;99.90
74513;DHT22;62992;52.052;8.550;2022-10-16T10:10:30;20.10;99.90
74513;DHT22;62992;52.052;8.550;2022-10-16T10:12:57;20.00;99.90
74513;DHT22;62992;52.052;8.550;2022-10-16T10:15:24;20.80;99.90
74513;DHT22;62992;52.052;8.550;2022-10-16T10:17:57;20.40;99.90
74513;DHT22;62992;52.052;8.550;2022-10-16T10:20:32;20.20;99.90
74513;DHT22;62992;52.052;8.550;2022-10-16T10:23:01;20.20;99.90
74513;DHT22;62992;52.052;8.550;2022-10-16T10:25:38;20.60;99.90
74513;DHT22;62992;52.052;8.550;2022-10-16T10:36:31;21.50;99.90
74513;DHT22;62992;52.052;8.550;2022-10-16T10:39:00;21.00;99.90
74513;DHT22;62992;52.052;8.550;2022-10-16T10:49:34;22.10;99.90
74513;DHT22;62992;52.052;8.550;2022-10-16T11:06:34;22.20;99.90
74513;DHT22;62992;52.052;8.550;2022-10-16T11:12:17;22.10;99.90
74513;DHT22;62992;52.052;8.550;2022-10-16T11:15:14;22.00;99.90
74513;DHT22;62992;52.052;8.550;2022-10-16T11:17:47;22.10;99.90
74513;DHT22;62992;52.052;8.550;2022-10-16T11:20:24;21.70;99.90
74513;DHT22;62992;52.052;8.550;2022-10-16T11:22:58;21.50;99.90
74513;DHT22;62992;52.052;8.550;2022-10-16T11:25:29;21.40;99.90
74513;DHT22;62992;52.052;8.550;2022-10-16T11:28:02;21.60;99.90
74513;DHT22;62992;52.052;8.550;2022-10-16T11:30:30;21.50;99.90
74513;DHT22;62992;52.052;8.550;2022-10-16T11:35:44;20.20;99.90
74513;DHT22;62992;52.052;8.550;2022-10-16T11:46:32;20.00;99.90
74513;DHT22;62992;52.052;8.550;2022-10-16T11:49:15;20.40;99.90
74513;DHT22;62992;52.052;8.550;2022-10-16T11:51:51;20.10;99.90
74513;DHT22;62992;52.052;8.550;2022-10-16T11:57:21;20.10;99.90
74513;DHT22;62992;52.052;8.550;2022-10-16T12:05:51;20.00;99.90
74513;DHT22;62992;52.052;8.550;2022-10-16T12:08:18;20.10;99.90
74513;DHT22;62992;52.052;8.550;2022-10-16T12:10:46;20.00;99.90
74513;DHT22;62992;52.052;8.550;2022-10-16T12:16:28;19.70;99.90
74513;DHT22;62992;52.052;8.550;2022-10-16T12:19:14;19.50;99.90
74513;DHT22;62992;52.052;8.550;2022-10-16T12:21:41;19.10;99.90
74513;DHT22;62992;52.052;8.550;2022-10-16T12:26:50;18.70;99.90
74513;DHT22;62992;52.052;8.550;2022-10-16T12:31:49;19.00;99.90
74513;DHT22;62992;52.052;8.550;2022-10-16T12:34:26;19.00;99.90
74513;DHT22;62992;52.052;8.550;2022-10-16T12:36:53;18.60;99.90
74513;DHT22;62992;52.052;8.550;2022-10-16T12:39:24;18.40;99.90
74513;DHT22;62992;52.052;8.550;2022-10-16T12:42:20;18.30;99.90
74513;DHT22;62992;52.052;8.550;2022-10-16T12:44:46;18.40;99.90
74513;DHT22;62992;52.052;8.550;2022-10-16T12:47:47;18.50;99.90
74513;DHT22;62992;52.052;8.550;2022-10-16T12:50:31;18.60;99.90
74513;DHT22;62992;52.052;8.550;2022-10-16T12:52:58;18.70;99.90
74513;DHT22;62992;52.052;8.550;2022-10-16T12:55:24;18.80;99.90
74513;DHT22;62992;52.052;8.550;2022-10-16T12:58:32;18.90;99.90
74513;DHT22;62992;52.052;8.550;2022-10-16T13:06:53;18.90;99.90
74513;DHT22;62992;52.052;8.550;2022-10-16T13:15:09;18.80;99.90
74513;DHT22;62992;52.052;8.550;2022-10-16T13:17:49;19.00;99.90
74513;DHT22;62992;52.052;8.550;2022-10-16T13:23:13;18.80;99.90
74513;DHT22;62992;52.052;8.550;2022-10-16T13:28:12;18.80;99.90
74513;DHT22;62992;52.052;8.550;2022-10-16T13:33:18;18.70;99.90
74513;DHT22;62992;52.052;8.550;2022-10-16T13:35:51;18.70;99.90
74513;DHT22;62992;52.052;8.550;2022-10-16T13:38:23;18.60;99.90
74513;DHT22;62992;52.052;8.550;2022-10-16T13:46:21;18.60;99.90
74513;DHT22;62992;52.052;8.550;2022-10-16T13:49:00;18.80;99.90
74513;DHT22;62992;52.052;8.550;2022-10-16T13:51:26;18.60;99.90
74513;DHT22;62992;52.052;8.550;2022-10-16T13:53:55;18.60;99.90
74513;DHT22;62992;52.052;8.550;2022-10-16T13:56:22;18.70;99.90
74513;DHT22;62992;52.052;8.550;2022-10-16T13:59:05;18.70;99.90
74513;DHT22;62992;52.052;8.550;2022-10-16T14:01:44;18.70;99.90
74513;DHT22;62992;52.052;8.550;2022-10-16T14:04:11;18.60;99.90
74513;DHT22;62992;52.052;8.550;2022-10-16T14:06:44;18.60;99.90
74513;DHT22;62992;52.052;8.550;2022-10-16T14:09:20;18.40;99.90
74513;DHT22;62992;52.052;8.550;2022-10-16T14:11:52;18.40;99.90
74513;DHT22;62992;52.052;8.550;2022-10-16T14:14:19;18.40;99.90
74513;DHT22;62992;52.052;8.550;2022-10-16T14:16:45;18.40;99.90
74513;DHT22;62992;52.052;8.550;2022-10-16T14:19:30;18.40;99.90
74513;DHT22;62992;52.052;8.550;2022-10-16T14:21:57;18.40;99.90
74513;DHT22;62992;52.052;8.550;2022-10-16T14:24:32;18.30;99.90
74513;DHT22;62992;52.052;8.550;2022-10-16T14:26:59;18.30;99.90
74513;DHT22;62992;52.052;8.550;2022-10-16T14:29:27;18.30;99.90
74513;DHT22;62992;52.052;8.550;2022-10-16T14:34:38;18.10;99.90
74513;DHT22;62992;52.052;8.550;2022-10-16T14:37:25;18.10;99.90
74513;DHT22;62992;52.052;8.550;2022-10-16T14:39:52;18.00;99.90
74513;DHT22;62992;52.052;8.550;2022-10-16T14:42:20;18.00;99.90
74513;DHT22;62992;52.052;8.550;2022-10-16T14:44:49;17.90;99.90
74513;DHT22;62992;52.052;8.550;2022-10-16T14:47:20;17.90;99.90
74513;DHT22;62992;52.052;8.550;2022-10-16T14:49:49;17.90;99.90
74513;DHT22;62992;52.052;8.550;2022-10-16T14:52:15;17.90;99.90
74513;DHT22;62992;52.052;8.550;2022-10-16T14:54:41;17.80;99.90
74513;DHT22;62992;52.052;8.550;2022-10-16T14:57:17;17.70;99.90
74513;DHT22;62992;52.052;8.550;2022-10-16T14:59:43;17.60;99.90
74513;DHT22;62992;52.052;8.550;2022-10-16T15:04:44;17.40;99.90
74513;DHT22;62992;52.052;8.550;2022-10-16T15:07:10;17.40;99.90
74513;DHT22;62992;52.052;8.550;2022-10-16T15:09:35;17.40;99.90
74513;DHT22;62992;52.052;8.550;2022-10-16T15:12:01;17.50;99.90
74513;DHT22;62992;52.052;8.550;2022-10-16T15:14:27;17.60;99.90
74513;DHT22;62992;52.052;8.550;2022-10-16T15:16:52;17.70;99.90
74513;DHT22;62992;52.052;8.550;2022-10-16T15:19:18;17.80;99.90
74513;DHT22;62992;52.052;8.550;2022-10-16T15:21:44;17.70;99.90
74513;DHT22;62992;52.052;8.550;2022-10-16T15:24:12;17.60;99.90
74513;DHT22;62992;52.052;8.550;2022-10-16T15:26:39;17.60;99.90
74513;DHT22;62992;52.052;8.550;2022-10-16T15:29:05;17.50;99.90
74513;DHT22;62992;52.052;8.550;2022-10-16T15:31:31;17.50;99.90
74513;DHT22;62992;52.052;8.550;2022-10-16T15:33:56;17.40;99.90
74513;DHT22;62992;52.052;8.550;2022-10-16T15:36:37;17.40;99.90
74513;DHT22;62992;52.052;8.550;2022-10-16T15:39:04;17.30;99.90
74513;DHT22;62992;52.052;8.550;2022-10-16T15:41:31;17.20;99.90
74513;DHT22;62992;52.052;8.550;2022-10-16T15:43:56;17.10;99.90
74513;DHT22;62992;52.052;8.550;2022-10-16T15:46:23;17.00;99.90
74513;DHT22;62992;52.052;8.550;2022-10-16T15:48:50;16.90;99.90
74513;DHT22;62992;52.052;8.550;2022-10-16T15:51:17;16.70;99.90
74513;DHT22;62992;52.052;8.550;2022-10-16T15:53:43;16.70;99.90
74513;DHT22;62992;52.052;8.550;2022-10-16T15:56:12;16.60;99.90
74513;DHT22;62992;52.052;8.550;2022-10-16T15:58:38;16.50;99.90
74513;DHT22;62992;52.052;8.550;2022-10-16T16:01:04;16.40;99.90
74513;DHT22;62992;52.052;8.550;2022-10-16T16:03:31;16.20;99.90
74513;DHT22;62992;52.052;8.550;2022-10-16T16:05:57;16.10;99.90
74513;DHT22;62992;52.052;8.550;2022-10-16T16:08:23;16.10;99.90
74513;DHT22;62992;52.052;8.550;2022-10-16T16:11:18;16.10;99.90
74513;DHT22;62992;52.052;8.550;2022-10-16T16:13:44;16.00;99.90
74513;DHT22;62992;52.052;8.550;2022-10-16T16:16:15;15.90;99.90
74513;DHT22;62992;52.052;8.550;2022-10-16T16:18:42;15.90;99.90
74513;DHT22;62992;52.052;8.550;2022-10-16T16:21:10;15.90;99.90
74513;DHT22;62992;52.052;8.550;2022-10-16T16:23:36;15.80;99.90
74513;DHT22;62992;52.052;8.550;2022-10-16T16:26:13;15.80;99.90
74513;DHT22;62992;52.052;8.550;2022-10-16T16:28:40;15.80;99.90
74513;DHT22;62992;52.052;8.550;2022-10-16T16:31:07;15.70;99.90
74513;DHT22;62992;52.052;8.550;2022-10-16T16:33:33;15.70;99.90
74513;DHT22;62992;52.052;8.550;2022-10-16T16:36:00;15.80;99.90
74513;DHT22;62992;52.052;8.550;2022-10-16T16:38:26;15.70;99.90
74513;DHT22;62992;52.052;8.550;2022-10-16T16:40:53;15.70;99.90
74513;DHT22;62992;52.052;8.550;2022-10-16T16:43:19;15.70;99.90
74513;DHT22;62992;52.052;8.550;2022-10-16T16:45:47;15.70;99.90
74513;DHT22;62992;52.052;8.550;2022-10-16T16:48:13;15.60;99.90
74513;DHT22;62992;52.052;8.550;2022-10-16T16:50:38;15.60;99.90
74513;DHT22;62992;52.052;8.550;2022-10-16T16:53:04;15.50;99.90
74513;DHT22;62992;52.052;8.550;2022-10-16T16:55:29;15.60;99.90
74513;DHT22;62992;52.052;8.550;2022-10-16T16:57:55;15.60;99.90
74513;DHT22;62992;52.052;8.550;2022-10-16T17:00:22;15.50;99.90
74513;DHT22;62992;52.052;8.550;2022-10-16T17:02:49;15.50;99.90
74513;DHT22;62992;52.052;8.550;2022-10-16T17:05:15;15.40;99.90
74513;DHT22;62992;52.052;8.550;2022-10-16T17:07:40;15.40;99.90
74513;DHT22;62992;52.052;8.550;2022-10-16T17:10:07;15.40;99.90
74513;DHT22;62992;52.052;8.550;2022-10-16T17:12:33;15.40;99.90
74513;DHT22;62992;52.052;8.550;2022-10-16T17:14:58;15.30;99.90
74513;DHT22;62992;52.052;8.550;2022-10-16T17:17:24;15.30;99.90
74513;DHT22;62992;52.052;8.550;2022-10-16T17:19:50;15.20;99.90
74513;DHT22;62992;52.052;8.550;2022-10-16T17:22:16;15.30;99.90
74513;DHT22;62992;52.052;8.550;2022-10-16T17:24:41;15.20;99.90
74513;DHT22;62992;52.052;8.550;2022-10-16T17:27:07;15.10;99.90
74513;DHT22;62992;52.052;8.550;2022-10-16T17:29:33;15.00;99.90
74513;DHT22;62992;52.052;8.550;2022-10-16T17:31:58;15.00;99.90
74513;DHT22;62992;52.052;8.550;2022-10-16T17:34:24;15.00;99.90
74513;DHT22;62992;52.052;8.550;2022-10-16T17:36:50;14.90;99.90
74513;DHT22;62992;52.052;8.550;2022-10-16T17:39:16;14.80;99.90
74513;DHT22;62992;52.052;8.550;2022-10-16T17:41:42;14.70;99.90